Time;durP1;ratioP1;P1;durP2;ratioP2;P2;SDS_P1;SDS_P2;PMS_P1;PMS_P2;Temp;Humidity;BMP_temperature;BMP_pressure;BME280_temperature;BME280_humidity;BME280_pressure;Samples;Min_cycle;Max_cycle;Signal;HPM_P1;HPM_P2
2022/04/22 00:02:39;;;;;;;12.47;10.58;;;;;;;12.33;72.19;94196.41;751457;77;26243;-72
2022/04/22 00:03:43;;;;;;;13.40;10.93;;;;;;;12.31;72.20;94199.12;749889;79;26245;-72
2022/04/22 00:04:49;;;;;;;12.28;11.08;;;;;;;12.32;72.28;94197.47;749806;79;26264;-73
2022/04/22 00:05:55;;;;;;;14.98;11.65;;;;;;;12.31;72.22;94197.80;749698;79;26252;-72
2022/04/22 00:06:59;;;;;;;13.58;10.65;;;;;;;12.32;72.18;94202.73;749767;79;26721;-71
2022/04/22 00:08:05;;;;;;;13.68;11.18;;;;;;;12.34;72.36;94201.13;749741;79;26764;-71
2022/04/22 00:11:32;;;;;;;11.22;10.10;;;;;;;12.34;72.32;94195.31;783847;73;26330;-72
2022/04/22 00:12:38;;;;;;;12.13;10.82;;;;;;;12.28;72.29;94191.27;794553;74;26234;-72
2022/04/22 00:13:45;;;;;;;11.78;10.50;;;;;;;12.27;72.39;94186.34;794330;74;26225;-72
2022/04/22 00:15:09;;;;;;;12.95;10.45;;;;;;;12.25;72.50;94183.20;792494;75;26781;-72
2022/04/22 00:16:17;;;;;;;12.55;11.12;;;;;;;12.25;72.71;94186.64;785877;75;26310;-72
2022/04/22 00:17:22;;;;;;;12.60;10.75;;;;;;;12.24;72.81;94190.33;766649;76;26369;-71
2022/04/22 00:21:11;;;;;;;12.60;11.30;;;;;;;12.26;73.09;94182.91;769259;77;26235;-72
2022/04/22 00:22:17;;;;;;;13.93;10.60;;;;;;;12.25;73.42;94184.52;749639;79;26264;-72
2022/04/22 00:23:26;;;;;;;13.15;11.57;;;;;;;12.25;73.46;94164.80;748490;79;26808;-71
2022/04/22 00:24:31;;;;;;;14.75;12.05;;;;;;;12.20;73.59;94167.80;748318;79;26276;-72
2022/04/22 00:25:36;;;;;;;14.55;11.85;;;;;;;12.19;73.76;94160.23;749420;79;26781;-73
2022/04/22 00:34:42;;;;;;;13.58;10.53;;;;;;;12.02;74.59;94148.59;754366;78;26171;-71
2022/04/22 00:35:46;;;;;;;11.53;10.30;;;;;;;12.02;74.57;94157.80;793045;74;26291;-72
2022/04/22 00:36:50;;;;;;;12.93;11.25;;;;;;;12.01;74.68;94162.04;792304;75;26760;-72
2022/04/22 00:37:54;;;;;;;11.83;10.58;;;;;;;12.01;74.79;94160.17;785410;75;26692;-72
2022/04/22 00:41:20;;;;;;;11.80;10.60;;;;;;;12.02;74.81;94159.62;792419;75;26187;-72
2022/04/22 00:42:28;;;;;;;11.83;10.53;;;;;;;11.98;74.72;94158.17;790887;74;26320;-71
2022/04/22 00:43:44;;;;;;;11.25;10.15;;;;;;;11.97;74.65;94159.78;790824;75;26336;-71
2022/04/22 00:44:49;;;;;;;12.20;10.45;;;;;;;11.99;74.75;94161.02;790700;75;26284;-72
2022/04/22 00:52:50;;;;;;;11.70;9.60;;;;;;;11.94;74.61;94157.23;807044;73;26213;-73
2022/04/22 00:54:16;;;;;;;11.63;10.43;;;;;;;11.88;74.75;94151.05;795459;72;26642;-73
2022/04/22 00:55:20;;;;;;;11.55;10.40;;;;;;;11.82;75.07;94149.88;802512;74;26644;-72
2022/04/22 00:56:25;;;;;;;11.33;10.23;;;;;;;11.82;75.21;94146.48;802450;74;26228;-73
2022/04/22 00:57:32;;;;;;;11.30;10.13;;;;;;;11.81;75.33;94143.06;802445;74;26224;-72
2022/04/22 01:00:44;;;;;;;13.35;10.60;;;;;;;11.88;75.82;94140.01;752795;79;26319;-73
2022/04/22 01:01:47;;;;;;;11.97;10.68;;;;;;;11.92;75.95;94136.23;744457;79;26739;-72
2022/04/22 01:02:52;;;;;;;12.40;10.50;;;;;;;11.96;75.74;94127.46;749524;77;26285;-73
2022/04/22 01:10:24;;;;;;;12.70;11.12;;;;;;;12.03;74.94;94116.48;763979;77;26192;-72
2022/04/22 01:11:35;;;;;;;13.15;11.40;;;;;;;12.05;74.83;94120.14;741610;79;26790;-72
2022/04/22 01:12:35;;;;;;;11.90;10.63;;;;;;;12.07;74.74;94123.23;744290;78;26244;-75
2022/04/22 01:13:39;;;;;;;12.50;10.60;;;;;;;12.10;74.51;94119.98;737287;80;26362;-72
2022/04/22 01:14:45;;;;;;;11.95;10.40;;;;;;;12.10;74.44;94112.86;738711;80;26272;-78
2022/04/22 01:15:51;;;;;;;13.08;10.85;;;;;;;12.12;74.34;94111.24;737257;80;26334;-72
2022/04/22 01:16:58;;;;;;;12.53;11.10;;;;;;;12.14;74.26;94110.39;766293;77;26387;-71
2022/04/22 01:18:03;;;;;;;12.18;10.70;;;;;;;12.15;74.30;94100.89;766288;77;26267;-71
2022/04/22 01:21:36;;;;;;;13.35;9.98;;;;;;;12.12;74.05;94093.59;763089;77;26206;-72
2022/04/22 01:22:41;;;;;;;11.35;10.20;;;;;;;12.07;74.02;94089.05;770960;76;26327;-72
2022/04/22 01:23:47;;;;;;;12.95;10.90;;;;;;;12.09;74.09;94082.94;770291;77;26249;-71
2022/04/22 01:24:55;;;;;;;12.35;11.05;;;;;;;12.08;74.13;94084.01;770225;77;26339;-71
2022/04/22 01:26:00;;;;;;;12.18;10.18;;;;;;;12.03;74.26;94080.99;770320;77;26238;-72
2022/04/22 01:27:07;;;;;;;12.75;11.25;;;;;;;11.99;74.41;94071.62;770262;77;26320;-71
2022/04/22 01:30:32;;;;;;;17.67;11.60;;;;;;;11.86;74.80;94065.14;768990;76;26348;-72
2022/04/22 01:31:35;;;;;;;14.00;12.07;;;;;;;11.70;75.11;94052.44;761508;78;26254;-71
2022/04/22 01:32:41;;;;;;;15.70;11.90;;;;;;;11.67;75.33;94047.77;762802;77;26358;-72
2022/04/22 01:40:47;;;;;;;12.65;11.12;;;;;;;11.41;76.47;94045.06;777123;74;26280;-71
2022/04/22 01:41:51;;;;;;;15.25;12.05;;;;;;;11.45;76.72;94049.17;795799;74;26238;-72
2022/04/22 01:42:55;;;;;;;13.08;11.63;;;;;;;11.48;76.84;94051.97;792246;75;26251;-72
2022/04/22 01:44:01;;;;;;;12.85;11.45;;;;;;;11.53;77.05;94049.20;792299;75;26241;-71
2022/04/22 01:45:07;;;;;;;14.18;11.80;;;;;;;11.58;77.16;94046.44;807320;73;26212;-73
2022/04/22 01:46:14;;;;;;;15.68;11.45;;;;;;;11.63;77.11;94044.97;802140;73;26214;-73
2022/04/22 01:47:20;;;;;;;13.83;11.35;;;;;;;11.70;77.22;94047.70;807331;73;26223;-71
2022/04/22 01:50:29;;;;;;;14.70;12.68;;;;;;;11.78;77.18;94051.68;776399;75;26758;-73
2022/04/22 01:51:33;;;;;;;15.05;12.20;;;;;;;11.83;76.87;94056.02;774068;76;26260;-73
2022/04/22 01:52:41;;;;;;;13.20;11.90;;;;;;;11.88;76.90;94060.34;760914;78;26713;-71
2022/04/22 01:53:46;;;;;;;14.07;11.63;;;;;;;11.91;76.87;94063.17;758381;78;26251;-72
2022/04/22 01:54:52;;;;;;;15.48;12.90;;;;;;;11.94;76.81;94069.15;775440;76;26234;-72
2022/04/22 01:55:57;;;;;;;15.03;11.33;;;;;;;11.98;76.66;94074.03;791646;75;26227;-72
2022/04/22 01:57:04;;;;;;;16.52;12.30;;;;;;;12.00;76.66;94073.70;791764;75;26234;-72
2022/04/22 02:00:56;;;;;;;11.85;10.65;;;;;;;12.05;76.42;94066.23;792067;75;26191;-72
2022/04/22 02:02:01;;;;;;;13.85;11.75;;;;;;;12.07;76.20;94075.35;772905;76;26771;-71
2022/04/22 02:03:06;;;;;;;13.10;10.68;;;;;;;12.09;76.02;94081.08;770450;76;26696;-72
2022/04/22 02:04:14;;;;;;;12.82;11.50;;;;;;;12.11;75.82;94093.38;771381;77;26246;-72
2022/04/22 02:05:18;;;;;;;13.60;11.65;;;;;;;12.11;75.79;94099.19;770918;77;26238;-72
2022/04/22 02:06:25;;;;;;;12.23;10.93;;;;;;;12.13;75.72;94096.48;770627;77;26238;-72
2022/04/22 02:07:29;;;;;;;13.45;11.63;;;;;;;12.14;75.79;94100.64;760550;78;26369;-71
2022/04/22 02:09:28;;;;;;;15.55;12.60;;;;;;;12.17;75.69;94107.17;749897;79;26251;-72
2022/04/22 02:10:33;;;;;;;12.90;10.78;;;;;;;12.17;75.60;94107.17;777763;76;26707;-72
2022/04/22 02:11:41;;;;;;;13.05;11.55;;;;;;;12.18;75.58;94111.33;778545;75;26759;-72
2022/04/22 02:12:47;;;;;;;15.83;11.55;;;;;;;12.20;75.56;94113.11;778624;76;26388;-71
2022/04/22 02:13:52;;;;;;;11.85;10.63;;;;;;;12.19;75.43;94109.72;778585;76;26253;-71
2022/04/22 02:14:56;;;;;;;14.63;11.45;;;;;;;12.21;75.37;94115.99;778610;76;26269;-72
2022/04/22 02:16:05;;;;;;;13.08;10.63;;;;;;;12.22;75.23;94115.66;778696;75;26343;-71
2022/04/22 02:17:10;;;;;;;12.53;11.28;;;;;;;12.23;75.24;94117.23;778646;76;26335;-73
2022/04/22 02:20:35;;;;;;;13.43;10.68;;;;;;;12.26;75.24;94111.89;778811;76;26234;-72
2022/04/22 02:32:58;;;;;;;13.95;12.47;;;;;;;12.07;74.17;94084.55;802854;73;26214;-72
2022/04/22 02:34:04;;;;;;;13.62;11.80;;;;;;;11.95;74.56;94079.12;801898;74;26338;-73
2022/04/22 02:35:09;;;;;;;14.70;11.20;;;;;;;11.88;74.82;94078.23;801770;74;26220;-75
2022/04/22 02:36:16;;;;;;;14.20;12.28;;;;;;;11.84;75.03;94074.66;801500;74;26665;-72
2022/04/22 02:37:20;;;;;;;17.48;12.82;;;;;;;11.83;75.19;94071.23;801569;74;26224;-72
2022/04/22 02:40:10;;;;;;;13.80;11.93;;;;;;;11.81;75.54;94075.26;808134;73;26262;-71
2022/04/22 02:45:27;;;;;;;13.28;11.25;;;;;;;11.82;75.43;94065.77;808716;73;26669;-72
2022/04/22 02:46:34;;;;;;;13.08;11.78;;;;;;;11.79;75.46;94066.91;808624;73;26205;-72
2022/04/22 02:47:38;;;;;;;13.13;11.75;;;;;;;11.77;75.46;94071.69;808545;73;26658;-72
2022/04/22 02:50:30;;;;;;;14.87;11.55;;;;;;;11.77;75.58;94074.32;789693;74;26764;-72
2022/04/22 02:51:36;;;;;;;14.47;12.43;;;;;;;11.77;75.68;94079.58;769097;77;26265;-72
2022/04/22 02:52:43;;;;;;;12.00;10.80;;;;;;;11.78;75.55;94088.48;767749;77;26252;-71
2022/04/22 02:53:47;;;;;;;13.35;11.55;;;;;;;11.80;75.58;94082.38;767748;77;26243;-72
2022/04/22 02:54:51;;;;;;;13.78;11.90;;;;;;;11.80;75.47;94081.06;767779;77;26245;-72
2022/04/22 02:55:57;;;;;;;13.58;11.88;;;;;;;11.81;75.39;94082.59;769292;76;26252;-72
2022/04/22 02:57:03;;;;;;;12.00;10.80;;;;;;;11.85;75.31;94079.37;774745;76;26306;-72
2022/04/22 03:02:17;;;;;;;12.65;10.70;;;;;;;11.93;75.74;94078.65;782807;75;26206;-71
2022/04/22 03:03:21;;;;;;;12.50;11.20;;;;;;;11.96;75.58;94078.02;783512;76;26228;-72
2022/04/22 03:04:29;;;;;;;12.63;11.28;;;;;;;11.99;75.54;94075.56;783339;76;26252;-72
2022/04/22 03:05:35;;;;;;;15.68;10.60;;;;;;;12.00;75.23;94065.81;770688;76;26253;-72
2022/04/22 03:06:41;;;;;;;12.05;10.85;;;;;;;12.02;75.27;94071.54;771940;76;26331;-72
2022/04/22 03:13:33;;;;;;;13.10;11.25;;;;;;;12.08;74.70;94071.63;792122;74;26259;-73
2022/04/22 03:14:38;;;;;;;13.75;11.73;;;;;;;12.08;74.46;94070.86;792382;75;26228;-72
2022/04/22 03:15:49;;;;;;;14.07;11.25;;;;;;;12.07;74.33;94064.83;782456;75;26704;-72
2022/04/22 03:16:50;;;;;;;12.50;11.00;;;;;;;12.09;74.22;94067.93;782934;75;26235;-72
2022/04/22 03:17:56;;;;;;;11.70;10.60;;;;;;;12.09;74.12;94065.84;792402;75;26278;-72
2022/04/22 03:19:19;;;;;;;13.53;10.60;;;;;;;12.08;73.99;94074.25;792521;75;26717;-71
2022/04/22 03:20:24;;;;;;;12.45;11.03;;;;;;;12.06;74.03;94079.59;758773;78;26321;-71
2022/04/22 03:21:28;;;;;;;11.90;10.78;;;;;;;12.05;74.09;94084.09;763053;78;26353;-72
2022/04/22 03:22:32;;;;;;;12.58;11.03;;;;;;;12.06;74.19;94085.63;763031;78;26246;-71
2022/04/22 03:23:36;;;;;;;15.68;12.43;;;;;;;12.08;74.45;94091.35;763100;78;26246;-73
2022/04/22 03:24:40;;;;;;;12.95;11.60;;;;;;;12.10;74.57;94091.05;763657;78;26241;-72
2022/04/22 03:25:44;;;;;;;12.88;11.40;;;;;;;12.11;74.43;94091.30;763395;78;26233;-72
2022/04/22 03:26:51;;;;;;;12.20;10.98;;;;;;;12.12;74.49;94093.59;763731;78;26306;-72
2022/04/22 03:30:37;;;;;;;12.40;10.75;;;;;;;12.16;74.57;94097.71;762997;78;26729;-72
2022/04/22 03:31:40;;;;;;;14.13;10.68;;;;;;;12.17;74.01;94095.33;769555;77;26273;-72
2022/04/22 03:32:45;;;;;;;12.33;10.95;;;;;;;12.15;74.08;94095.63;769348;77;26312;-71
2022/04/22 03:33:48;;;;;;;11.80;10.60;;;;;;;12.18;74.26;94100.27;769524;77;26297;-72
2022/04/22 03:34:52;;;;;;;12.85;11.43;;;;;;;12.20;74.37;94099.41;769497;77;26246;-71
2022/04/22 03:35:56;;;;;;;12.13;10.82;;;;;;;12.23;74.41;94101.99;769575;77;26234;-72
2022/04/22 03:37:00;;;;;;;12.50;11.20;;;;;;;12.23;74.39;94094.87;769555;77;26243;-73
2022/04/22 03:41:44;;;;;;;13.25;11.85;;;;;;;12.27;74.07;94104.24;765058;76;26314;-73
2022/04/22 03:42:49;;;;;;;15.15;11.38;;;;;;;12.28;74.14;94105.77;773194;76;26249;-72
2022/04/22 03:43:53;;;;;;;15.40;11.78;;;;;;;12.30;74.26;94112.82;773113;76;26253;-72
2022/04/22 03:44:57;;;;;;;14.30;11.18;;;;;;;12.32;74.26;94117.78;773235;76;26245;-73
2022/04/22 03:47:23;;;;;;;13.58;11.93;;;;;;;12.35;74.32;94123.76;773137;76;26707;-72
2022/04/22 03:50:44;;;;;;;11.75;10.55;;;;;;;12.36;74.40;94122.66;747456;78;26698;-72
2022/04/22 03:51:47;;;;;;;12.95;11.43;;;;;;;12.36;74.30;94116.85;744547;79;26319;-72
2022/04/22 03:52:51;;;;;;;12.28;11.08;;;;;;;12.36;74.24;94112.91;745004;79;26253;-72
2022/04/22 03:53:57;;;;;;;14.23;12.05;;;;;;;12.36;74.28;94115.53;745396;79;26258;-71
2022/04/22 04:00:11;;;;;;;19.15;14.93;;;;;;;12.33;74.30;94110.14;759510;76;26352;-72
2022/04/22 04:01:15;;;;;;;16.15;12.20;;;;;;;12.27;74.06;94112.13;771387;76;26242;-72
2022/04/22 04:02:19;;;;;;;12.30;10.98;;;;;;;12.25;73.95;94110.35;771376;77;26244;-70
2022/04/22 04:03:24;;;;;;;11.78;10.55;;;;;;;12.22;73.94;94104.38;771334;77;26242;-71
2022/04/22 04:04:28;;;;;;;11.60;10.40;;;;;;;12.22;73.97;94113.58;766538;77;28133;-73
2022/04/22 04:05:34;;;;;;;13.85;10.08;;;;;;;12.26;74.21;94119.78;771355;77;26327;-74
2022/04/22 04:06:38;;;;;;;11.38;10.03;;;;;;;12.25;74.53;94118.77;771407;77;26323;-73
2022/04/22 04:16:52;;;;;;;11.97;10.30;;;;;;;12.18;74.36;94093.69;785450;75;26234;-73
2022/04/22 04:23:22;;;;;;;12.25;10.08;;;;;;;11.92;75.65;94108.63;773903;76;26308;-74
2022/04/22 04:29:19;;;;;;;11.30;9.40;;;;;;;11.91;75.46;94095.27;774587;75;26224;-72
2022/04/22 04:30:23;;;;;;;12.00;10.10;;;;;;;11.86;75.40;94089.59;773547;75;26296;-76
2022/04/22 04:31:28;;;;;;;12.40;10.45;;;;;;;11.85;75.69;94092.52;784085;75;26235;-75
2022/04/22 04:32:32;;;;;;;11.55;9.90;;;;;;;11.84;75.89;94103.58;784098;75;26235;-74
2022/04/22 04:33:39;;;;;;;13.70;10.00;;;;;;;11.85;75.69;94100.41;784007;75;26703;-74
2022/04/22 04:34:44;;;;;;;11.40;10.18;;;;;;;11.85;75.59;94098.55;784089;75;26242;-73
2022/04/22 04:35:48;;;;;;;11.15;10.05;;;;;;;11.83;75.58;94105.41;785499;75;26238;-74
2022/04/22 04:36:52;;;;;;;12.80;11.50;;;;;;;11.85;75.64;94104.34;786618;75;26235;-75
2022/04/22 04:40:22;;;;;;;11.65;10.45;;;;;;;11.88;75.95;94093.20;778270;73;26625;-75
2022/04/22 04:41:26;;;;;;;13.98;10.25;;;;;;;11.82;75.59;94079.45;780418;76;26780;-75
2022/04/22 04:49:21;;;;;;;12.35;10.28;;;;;;;11.88;75.52;94080.86;783564;75;26400;-74
2022/04/22 04:50:25;;;;;;;14.28;11.28;;;;;;;11.89;75.68;94090.86;787214;75;26711;-75
2022/04/22 04:51:29;;;;;;;13.25;11.15;;;;;;;11.90;75.22;94089.77;787071;75;26692;-73
2022/04/22 04:52:35;;;;;;;14.05;11.43;;;;;;;11.90;75.17;94080.56;787155;75;26297;-73
2022/04/22 04:53:39;;;;;;;14.45;12.23;;;;;;;11.92;75.15;94073.94;802200;74;26678;-73
2022/04/22 04:54:44;;;;;;;14.20;12.65;;;;;;;11.93;74.87;94075.47;810268;73;26659;-74
2022/04/22 04:55:48;;;;;;;13.85;12.45;;;;;;;11.94;74.59;94083.61;810375;73;26683;-77
2022/04/22 04:56:52;;;;;;;14.28;12.05;;;;;;;11.96;74.69;94089.34;810497;73;26207;-74
2022/04/22 04:58:15;;;;;;;15.40;13.00;;;;;;;11.98;74.33;94082.44;809936;73;26214;-74
2022/04/22 04:59:22;;;;;;;13.78;12.35;;;;;;;12.01;74.17;94081.84;773187;76;26299;-75
2022/04/22 05:00:26;;;;;;;14.60;12.60;;;;;;;12.01;74.08;94073.95;775919;76;26747;-74
2022/04/22 05:01:30;;;;;;;13.98;12.58;;;;;;;12.02;73.89;94084.17;776109;76;26241;-74
2022/04/22 05:02:35;;;;;;;14.53;12.45;;;;;;;12.04;74.09;94079.89;776021;76;26704;-73
2022/04/22 05:03:39;;;;;;;13.53;12.15;;;;;;;12.07;74.04;94075.90;762480;78;26345;-74
2022/04/22 05:04:43;;;;;;;14.13;12.60;;;;;;;12.10;74.28;94075.27;765843;77;26432;-74
2022/04/22 05:05:46;;;;;;;15.00;12.93;;;;;;;12.12;74.30;94075.73;762836;77;26341;-73
2022/04/22 05:06:50;;;;;;;15.30;13.18;;;;;;;12.14;74.26;94079.60;776500;76;26234;-74
2022/04/22 05:07:57;;;;;;;14.90;13.28;;;;;;;12.17;74.31;94068.48;776374;76;26330;-74
2022/04/22 05:09:03;;;;;;;14.03;12.55;;;;;;;12.19;74.25;94066.31;776123;76;26285;-73
2022/04/22 05:10:08;;;;;;;16.10;12.33;;;;;;;12.22;74.41;94059.66;776050;76;26302;-74
2022/04/22 05:11:12;;;;;;;14.63;12.60;;;;;;;12.23;74.53;94059.36;776015;76;26333;-73
2022/04/22 05:12:16;;;;;;;14.58;13.08;;;;;;;12.25;74.39;94050.38;776101;76;26237;-73
2022/04/22 05:13:21;;;;;;;15.70;13.58;;;;;;;12.25;74.04;94051.69;776235;76;26711;-73
2022/04/22 05:14:26;;;;;;;14.80;13.22;;;;;;;12.23;73.85;94053.33;776449;76;26236;-74
2022/04/22 05:15:33;;;;;;;17.15;13.62;;;;;;;12.22;74.03;94051.77;776323;76;26238;-73
2022/04/22 05:16:38;;;;;;;15.40;12.80;;;;;;;12.22;74.01;94051.77;776107;76;26238;-73
2022/04/22 05:22:01;;;;;;;15.35;13.68;;;;;;;12.21;73.80;94033.91;790612;75;26797;-73
2022/04/22 05:24:57;;;;;;;15.88;13.22;;;;;;;12.12;73.49;94024.45;777268;75;26324;-73
2022/04/22 05:26:02;;;;;;;14.47;12.85;;;;;;;12.06;73.50;94015.94;784022;75;26252;-74
2022/04/22 05:32:38;;;;;;;15.28;13.40;;;;;;;11.93;73.83;93987.95;804240;73;26205;-74
2022/04/22 05:33:45;;;;;;;16.23;13.65;;;;;;;11.90;73.94;93990.66;804536;73;26197;-74
2022/04/22 05:34:48;;;;;;;17.67;14.18;;;;;;;11.89;73.68;93981.21;804515;73;26261;-73
2022/04/22 05:35:53;;;;;;;16.62;14.90;;;;;;;11.85;73.63;93974.22;805087;73;26233;-74
2022/04/22 05:39:18;;;;;;;16.82;14.55;;;;;;;11.76;74.36;93945.28;805052;73;26201;-76
2022/04/22 05:40:26;;;;;;;15.15;13.58;;;;;;;11.68;74.73;93946.84;790062;74;26218;-75
2022/04/22 05:41:36;;;;;;;17.50;13.43;;;;;;;11.61;74.68;93938.63;789691;75;26677;-75
2022/04/22 05:42:40;;;;;;;16.10;13.20;;;;;;;11.53;74.86;93926.25;789740;75;26234;-74
2022/04/22 05:43:44;;;;;;;15.20;12.70;;;;;;;11.47;74.82;93930.11;789839;75;26250;-74
2022/04/22 05:44:48;;;;;;;14.58;13.10;;;;;;;11.43;74.60;93932.56;789655;75;26293;-74
2022/04/22 05:45:53;;;;;;;15.70;12.37;;;;;;;11.40;74.63;93914.81;789702;75;26231;-74
2022/04/22 05:49:18;;;;;;;16.00;11.20;;;;;;;11.35;74.62;93907.83;790285;75;26148;-74
2022/04/22 05:50:23;;;;;;;13.40;11.38;;;;;;;11.31;74.79;93903.50;795057;74;26231;-74
2022/04/22 05:51:27;;;;;;;12.65;11.20;;;;;;;11.34;74.88;93905.53;826224;72;26304;-75
2022/04/22 05:52:33;;;;;;;11.30;10.10;;;;;;;11.38;74.22;93894.64;826243;72;26289;-76
2022/04/22 05:53:37;;;;;;;15.35;11.08;;;;;;;11.39;74.10;93890.41;826003;72;26207;-77
2022/04/22 05:54:41;;;;;;;12.73;10.85;;;;;;;11.38;73.84;93886.77;826150;72;26306;-75
2022/04/22 05:55:46;;;;;;;12.50;11.28;;;;;;;11.34;73.66;93895.02;826254;72;26292;-76
2022/04/22 05:59:53;;;;;;;15.68;10.43;;;;;;;11.37;74.02;93903.59;825998;72;26119;-74
2022/04/22 06:00:59;;;;;;;13.72;10.32;;;;;;;11.39;74.37;93895.66;801648;74;26227;-72
2022/04/22 06:02:02;;;;;;;11.75;10.55;;;;;;;11.45;74.16;93902.83;784583;75;26235;-72
2022/04/22 06:03:07;;;;;;;12.43;10.20;;;;;;;11.48;73.71;93915.36;770724;77;26245;-73
2022/04/22 06:04:10;;;;;;;15.30;11.00;;;;;;;11.50;73.50;93897.98;771221;77;26233;-72
2022/04/22 06:05:16;;;;;;;12.65;11.30;;;;;;;11.53;73.20;93899.44;787485;75;26223;-71
2022/04/22 06:06:20;;;;;;;12.07;10.75;;;;;;;11.54;72.95;93896.29;801638;74;26701;-73
2022/04/22 06:10:36;;;;;;;11.75;10.25;;;;;;;11.52;72.67;93891.34;773384;76;26730;-72
2022/04/22 06:11:40;;;;;;;11.78;10.58;;;;;;;11.49;72.29;93881.97;773513;76;26307;-74
2022/04/22 06:12:44;;;;;;;13.22;10.90;;;;;;;11.47;72.22;93878.34;773640;76;26224;-74
2022/04/22 06:13:48;;;;;;;12.13;10.25;;;;;;;11.47;71.98;93874.94;773327;76;26237;-73
2022/04/22 06:14:53;;;;;;;12.63;11.03;;;;;;;11.44;71.89;93886.84;773151;76;26236;-72
2022/04/22 06:15:57;;;;;;;12.25;10.95;;;;;;;11.47;72.10;93881.51;773348;76;26759;-71
2022/04/22 06:20:43;;;;;;;11.60;10.18;;;;;;;11.52;71.96;93875.57;779351;74;26290;-72
2022/04/22 06:25:55;;;;;;;11.43;9.98;;;;;;;11.50;72.05;93873.03;773506;76;26235;-73
2022/04/22 06:30:20;;;;;;;12.58;9.63;;;;;;;11.58;71.90;93880.14;776287;76;26290;-74
2022/04/22 06:31:29;;;;;;;15.60;10.68;;;;;;;11.66;72.06;93874.63;774967;76;26224;-75
2022/04/22 06:32:33;;;;;;;11.70;10.45;;;;;;;11.74;71.99;93884.37;775030;76;26231;-76
2022/04/22 06:33:38;;;;;;;12.43;10.60;;;;;;;11.87;72.29;93883.45;774773;76;26217;-74
2022/04/22 06:34:42;;;;;;;13.22;10.50;;;;;;;11.99;71.89;93884.17;774818;76;26294;-74
2022/04/22 06:35:46;;;;;;;11.15;10.05;;;;;;;12.10;71.72;93885.93;774867;76;26307;-77
2022/04/22 06:36:50;;;;;;;13.38;10.45;;;;;;;12.23;71.59;93887.07;774947;76;26290;-75
2022/04/22 06:37:55;;;;;;;11.85;10.20;;;;;;;12.36;71.57;93894.54;774820;76;26236;-75
2022/04/22 06:38:59;;;;;;;13.98;11.73;;;;;;;12.49;71.71;93894.66;774951;76;26227;-78
2022/04/22 06:45:48;;;;;;;11.90;10.70;;;;;;;13.11;70.55;93888.84;774851;76;26293;-77
2022/04/22 06:49:17;;;;;;;10.65;9.28;;;;;;;13.38;70.66;93906.62;801615;73;26241;-76
2022/04/22 06:50:21;;;;;;;11.08;9.80;;;;;;;13.59;69.70;93900.07;794722;74;26287;-73
2022/04/22 06:51:25;;;;;;;14.75;10.85;;;;;;;13.69;69.69;93894.41;801515;74;26680;-72
2022/04/22 06:52:29;;;;;;;13.53;11.80;;;;;;;13.78;69.87;93900.94;794618;74;26225;-72
2022/04/22 06:53:37;;;;;;;13.40;12.00;;;;;;;13.90;69.78;93906.82;801686;74;26228;-73
2022/04/22 06:54:48;;;;;;;15.40;12.18;;;;;;;13.98;69.89;93892.23;787021;75;24635;-75
2022/04/22 06:55:58;;;;;;;17.48;14.50;;;;;;;14.10;69.95;93884.92;801587;74;26739;-72
2022/04/22 06:58:47;;;;;;;15.03;13.38;;;;;;;14.32;69.72;93883.78;761986;78;26296;-76
2022/04/22 06:59:51;;;;;;;16.57;14.05;;;;;;;14.47;69.37;93875.78;764930;77;26734;-78
2022/04/22 07:00:55;;;;;;;75.10;64.87;;;;;;;14.59;69.07;93871.88;765082;77;26262;-73
2022/04/22 07:02:00;;;;;;;91.05;81.00;;;;;;;14.95;74.03;93868.28;764787;77;26313;-75
2022/04/22 07:03:04;;;;;;;93.70;83.03;;;;;;;15.47;75.80;93860.18;764758;77;26278;-76
2022/04/22 07:04:09;;;;;;;90.07;80.20;;;;;;;16.15;75.25;93860.77;765776;77;26325;-76
2022/04/22 07:05:13;;;;;;;82.75;73.72;;;;;;;16.73;73.24;93866.41;766972;77;26263;-77
2022/04/22 07:12:18;;;;;;;15.15;13.62;;;;;;;18.88;59.24;93855.41;779247;76;26233;-72
2022/04/22 07:13:23;;;;;;;14.07;12.58;;;;;;;18.98;58.19;93865.44;779059;76;26245;-73
2022/04/22 07:14:29;;;;;;;13.03;11.73;;;;;;;19.03;57.23;93860.95;773642;76;26254;-73
2022/04/22 07:15:35;;;;;;;14.05;12.65;;;;;;;19.10;56.83;93859.70;771773;77;26246;-73
2022/04/22 07:19:00;;;;;;;11.28;10.20;;;;;;;19.29;56.09;93845.56;771686;77;26210;-72
2022/04/22 07:20:09;;;;;;;12.20;11.00;;;;;;;19.45;55.15;93854.14;790936;75;26280;-73
2022/04/22 07:21:15;;;;;;;13.55;11.83;;;;;;;19.54;54.51;93863.95;791107;74;26239;-73
2022/04/22 07:22:20;;;;;;;12.70;11.40;;;;;;;19.65;54.06;93865.44;791061;75;26230;-72
2022/04/22 07:23:24;;;;;;;14.85;13.35;;;;;;;19.72;52.86;93865.55;791283;75;26320;-74
2022/04/22 07:24:28;;;;;;;13.90;12.50;;;;;;;19.79;52.62;93862.23;791754;75;26233;-73
2022/04/22 07:25:32;;;;;;;13.45;12.05;;;;;;;19.90;52.41;93866.34;791120;75;26230;-72
2022/04/22 07:30:50;;;;;;;10.18;9.25;;;;;;;20.37;50.97;93863.05;766775;75;26278;-73
2022/04/22 07:31:52;;;;;;;11.68;10.58;;;;;;;20.61;50.66;93865.79;768501;77;26817;-72
2022/04/22 07:32:56;;;;;;;11.68;10.68;;;;;;;20.74;50.25;93861.52;766765;77;26313;-73
2022/04/22 07:34:01;;;;;;;12.47;10.78;;;;;;;20.83;49.40;93863.33;766206;77;26255;-72
2022/04/22 07:35:08;;;;;;;11.50;10.50;;;;;;;20.97;49.14;93870.69;766191;77;26325;-71
2022/04/22 07:36:17;;;;;;;11.08;9.98;;;;;;;21.05;48.49;93871.52;765304;77;26314;-72
2022/04/22 08:30:01;;;;;;;7.60;6.90;;;;;;;20.35;44.81;93858.65;781575;72;26206;-70
2022/04/22 08:31:04;;;;;;;8.38;7.58;;;;;;;20.28;45.39;93855.93;793249;74;26296;-73
2022/04/22 08:32:08;;;;;;;9.45;8.53;;;;;;;20.35;45.50;93859.23;807285;73;26729;-73
2022/04/22 08:33:16;;;;;;;13.83;12.37;;;;;;;20.46;45.59;93867.31;804225;74;26220;-72
2022/04/22 08:34:21;;;;;;;10.68;8.93;;;;;;;20.57;45.26;93866.30;804272;74;26743;-72
2022/04/22 08:35:25;;;;;;;7.97;7.28;;;;;;;20.62;44.55;93857.25;804244;74;26229;-71
2022/04/22 08:36:31;;;;;;;8.55;7.65;;;;;;;20.61;44.55;93859.13;804305;74;26241;-72
2022/04/22 08:37:36;;;;;;;8.28;7.35;;;;;;;20.58;44.22;93849.75;804190;74;26685;-73
2022/04/22 08:38:40;;;;;;;8.58;7.50;;;;;;;20.50;44.01;93853.46;804334;74;26221;-72
2022/04/22 08:39:44;;;;;;;7.92;7.12;;;;;;;20.35;44.55;93843.99;804188;74;26220;-72
2022/04/22 08:50:02;;;;;;;7.30;6.50;;;;;;;20.81;43.73;93841.02;790963;75;26240;-75
2022/04/22 08:51:08;;;;;;;7.70;7.00;;;;;;;20.90;43.74;93842.61;791073;75;26233;-72
2022/04/22 08:52:13;;;;;;;7.00;6.50;;;;;;;20.99;43.81;93839.83;791751;75;26295;-72
2022/04/22 08:53:25;;;;;;;8.28;6.75;;;;;;;21.00;43.30;93833.38;792257;75;26294;-71
2022/04/22 08:54:27;;;;;;;8.58;7.05;;;;;;;21.03;43.54;93828.44;790608;75;26772;-70
2022/04/22 08:55:32;;;;;;;7.80;7.10;;;;;;;21.05;43.70;93829.59;791043;75;26312;-72
2022/04/22 09:00:25;;;;;;;7.30;6.70;;;;;;;21.09;43.50;93829.62;728331;80;26256;-73
2022/04/22 09:01:33;;;;;;;7.50;6.90;;;;;;;20.99;43.75;93832.41;748153;78;26264;-72
2022/04/22 09:02:40;;;;;;;7.90;7.12;;;;;;;21.09;44.31;93830.38;747064;79;26274;-71
2022/04/22 09:03:54;;;;;;;6.83;6.20;;;;;;;21.09;43.45;93825.62;746787;79;26321;-71
2022/04/22 09:05:02;;;;;;;7.75;7.03;;;;;;;21.09;43.92;93821.04;745556;79;26275;-70
2022/04/22 09:09:54;;;;;;;8.30;7.60;;;;;;;21.15;43.34;93810.22;777155;75;26291;-71
2022/04/22 09:11:08;;;;;;;8.05;7.22;;;;;;;21.01;43.46;93801.55;781952;76;26834;-73
2022/04/22 09:12:36;;;;;;;8.40;7.70;;;;;;;20.81;43.22;93802.92;781750;76;26237;-71
2022/04/22 09:13:38;;;;;;;7.62;6.78;;;;;;;20.67;43.62;93808.91;781355;74;26249;-73
2022/04/22 09:14:58;;;;;;;6.97;6.30;;;;;;;20.59;43.81;93811.31;782622;76;26299;-72
2022/04/22 09:18:04;;;;;;;6.95;6.45;;;;;;;20.66;43.35;93811.39;766172;73;26678;-74
2022/04/22 09:19:25;;;;;;;6.92;6.33;;;;;;;20.75;43.17;93797.73;765612;77;26282;-73